Search for airport 
image banner adimage banner ad
image banner ad

SBCX - Hugo Cantergiani Regional Airport

Located in Caxias Do Sul, Brazil

ICAO - SBCX, IATA - CXJ

Data provided by Airmate  

General information

Coordinates: S29°11'44" W51°11'23"
Elevation is 2473 feet MSL.
Magnetic variation is -17° East
View others Airports in Rio Grande do Sul

Operational data

Open for public use
Current time UTC:
Current local time:
Weather
METAR: SBCX 011000Z 15004KT 9999 3000S BCFG FEW002 17/15 Q1018
View NOTAMs / SUP AIP / TFR affecting this airport [VIEW]
Communications frequencies: [VIEW]

Runways:

RWY identifierQFULength (ft)Width (ft)SurfaceLDA (ft)
15547998ASP
33547998ASP

Airport contact information

Address: Caxias Do Sul Brazil

Other aviation service providers

Aviation club (not for profit)

Aero Club Of Caxias Do Sul

Aero Club Of Caxias Do Sul

Satellite view of SBCX